sensor_id;sensor_type;location;lat;lon;timestamp;temperature;humidity
67897;DHT22;54698;48.428;9.964;2022-09-30T00:00:48;8.10;99.90
67897;DHT22;54698;48.428;9.964;2022-09-30T00:03:14;8.20;99.90
67897;DHT22;54698;48.428;9.964;2022-09-30T00:05:41;8.10;99.90
67897;DHT22;54698;48.428;9.964;2022-09-30T00:08:07;8.20;99.90
67897;DHT22;54698;48.428;9.964;2022-09-30T00:10:33;8.10;99.90
67897;DHT22;54698;48.428;9.964;2022-09-30T00:12:59;8.10;99.90
67897;DHT22;54698;48.428;9.964;2022-09-30T00:15:25;8.00;99.90
67897;DHT22;54698;48.428;9.964;2022-09-30T00:17:51;7.90;99.90
67897;DHT22;54698;48.428;9.964;2022-09-30T00:20:17;7.90;99.90
67897;DHT22;54698;48.428;9.964;2022-09-30T00:22:44;7.90;99.90
67897;DHT22;54698;48.428;9.964;2022-09-30T00:25:10;7.90;99.90
67897;DHT22;54698;48.428;9.964;2022-09-30T00:27:36;7.90;99.90
67897;DHT22;54698;48.428;9.964;2022-09-30T00:30:02;8.00;99.90
67897;DHT22;54698;48.428;9.964;2022-09-30T00:32:28;7.80;99.90
67897;DHT22;54698;48.428;9.964;2022-09-30T00:34:54;7.80;99.90
67897;DHT22;54698;48.428;9.964;2022-09-30T00:37:20;7.80;99.90
67897;DHT22;54698;48.428;9.964;2022-09-30T00:39:47;7.70;99.90
67897;DHT22;54698;48.428;9.964;2022-09-30T00:42:14;7.70;99.90
67897;DHT22;54698;48.428;9.964;2022-09-30T00:44:51;7.80;99.90
67897;DHT22;54698;48.428;9.964;2022-09-30T00:50:19;7.70;99.90
67897;DHT22;54698;48.428;9.964;2022-09-30T00:52:52;7.60;99.90
67897;DHT22;54698;48.428;9.964;2022-09-30T00:55:31;7.60;99.90
67897;DHT22;54698;48.428;9.964;2022-09-30T00:58:00;7.60;99.90
67897;DHT22;54698;48.428;9.964;2022-09-30T01:00:27;7.60;99.90
67897;DHT22;54698;48.428;9.964;2022-09-30T01:02:54;7.70;99.90
67897;DHT22;54698;48.428;9.964;2022-09-30T01:05:21;7.70;99.90
67897;DHT22;54698;48.428;9.964;2022-09-30T01:07:48;7.70;99.90
67897;DHT22;54698;48.428;9.964;2022-09-30T01:10:14;7.70;99.90
67897;DHT22;54698;48.428;9.964;2022-09-30T01:12:41;7.70;99.90
67897;DHT22;54698;48.428;9.964;2022-09-30T01:15:08;7.50;99.90
67897;DHT22;54698;48.428;9.964;2022-09-30T01:17:43;7.40;99.90
67897;DHT22;54698;48.428;9.964;2022-09-30T01:20:47;7.30;99.90
67897;DHT22;54698;48.428;9.964;2022-09-30T01:26:44;7.20;99.90
67897;DHT22;54698;48.428;9.964;2022-09-30T01:29:49;7.10;99.90
67897;DHT22;54698;48.428;9.964;2022-09-30T01:32:38;7.10;99.90
67897;DHT22;54698;48.428;9.964;2022-09-30T01:35:21;7.10;99.90
67897;DHT22;54698;48.428;9.964;2022-09-30T01:38:00;7.00;99.90
67897;DHT22;54698;48.428;9.964;2022-09-30T01:40:38;7.10;99.90
67897;DHT22;54698;48.428;9.964;2022-09-30T01:43:08;7.10;99.90
67897;DHT22;54698;48.428;9.964;2022-09-30T01:45:41;7.00;99.90
67897;DHT22;54698;48.428;9.964;2022-09-30T01:48:16;7.10;99.90
67897;DHT22;54698;48.428;9.964;2022-09-30T01:50:49;7.10;99.90
67897;DHT22;54698;48.428;9.964;2022-09-30T01:53:18;7.00;99.90
67897;DHT22;54698;48.428;9.964;2022-09-30T01:55:51;7.00;99.90
67897;DHT22;54698;48.428;9.964;2022-09-30T01:58:23;7.00;99.90
67897;DHT22;54698;48.428;9.964;2022-09-30T02:00:57;7.00;99.90
67897;DHT22;54698;48.428;9.964;2022-09-30T02:03:28;7.00;99.90
67897;DHT22;54698;48.428;9.964;2022-09-30T02:06:00;7.00;99.90
67897;DHT22;54698;48.428;9.964;2022-09-30T02:08:31;7.10;99.90
67897;DHT22;54698;48.428;9.964;2022-09-30T02:11:04;7.00;99.90
67897;DHT22;54698;48.428;9.964;2022-09-30T02:13:37;7.00;99.90
67897;DHT22;54698;48.428;9.964;2022-09-30T02:16:10;7.00;99.90
67897;DHT22;54698;48.428;9.964;2022-09-30T02:18:42;6.90;99.90
67897;DHT22;54698;48.428;9.964;2022-09-30T02:21:11;6.90;99.90
67897;DHT22;54698;48.428;9.964;2022-09-30T02:23:41;6.80;99.90
67897;DHT22;54698;48.428;9.964;2022-09-30T02:26:13;6.90;99.90
67897;DHT22;54698;48.428;9.964;2022-09-30T02:28:44;6.80;99.90
67897;DHT22;54698;48.428;9.964;2022-09-30T02:31:13;6.70;99.90
67897;DHT22;54698;48.428;9.964;2022-09-30T02:33:45;6.60;99.90
67897;DHT22;54698;48.428;9.964;2022-09-30T02:36:18;6.60;99.90
67897;DHT22;54698;48.428;9.964;2022-09-30T02:38:50;6.50;99.90
67897;DHT22;54698;48.428;9.964;2022-09-30T02:41:23;6.50;99.90
67897;DHT22;54698;48.428;9.964;2022-09-30T02:43:51;6.50;99.90
67897;DHT22;54698;48.428;9.964;2022-09-30T02:46:24;6.50;99.90
67897;DHT22;54698;48.428;9.964;2022-09-30T02:49:00;6.50;99.90
67897;DHT22;54698;48.428;9.964;2022-09-30T02:51:36;6.60;99.90
67897;DHT22;54698;48.428;9.964;2022-09-30T02:54:14;6.60;99.90
67897;DHT22;54698;48.428;9.964;2022-09-30T02:56:48;6.50;99.90
67897;DHT22;54698;48.428;9.964;2022-09-30T02:59:16;6.60;99.90
67897;DHT22;54698;48.428;9.964;2022-09-30T03:01:42;6.60;99.90
67897;DHT22;54698;48.428;9.964;2022-09-30T03:04:12;6.60;99.90
67897;DHT22;54698;48.428;9.964;2022-09-30T03:06:40;6.60;99.90
67897;DHT22;54698;48.428;9.964;2022-09-30T03:09:06;6.80;99.90
67897;DHT22;54698;48.428;9.964;2022-09-30T03:11:34;6.80;99.90
67897;DHT22;54698;48.428;9.964;2022-09-30T03:14:33;6.90;99.90
67897;DHT22;54698;48.428;9.964;2022-09-30T03:17:31;6.80;99.90
67897;DHT22;54698;48.428;9.964;2022-09-30T03:20:17;6.80;99.90
67897;DHT22;54698;48.428;9.964;2022-09-30T03:23:08;6.70;99.90
67897;DHT22;54698;48.428;9.964;2022-09-30T03:25:51;6.60;99.90
67897;DHT22;54698;48.428;9.964;2022-09-30T03:28:25;6.50;99.90
67897;DHT22;54698;48.428;9.964;2022-09-30T03:31:01;6.50;99.90
67897;DHT22;54698;48.428;9.964;2022-09-30T03:33:36;6.40;99.90
67897;DHT22;54698;48.428;9.964;2022-09-30T03:36:09;6.30;99.90
67897;DHT22;54698;48.428;9.964;2022-09-30T03:38:40;6.20;99.90
67897;DHT22;54698;48.428;9.964;2022-09-30T03:41:14;6.10;99.90
67897;DHT22;54698;48.428;9.964;2022-09-30T03:43:45;6.20;99.90
67897;DHT22;54698;48.428;9.964;2022-09-30T03:46:17;6.30;99.90
67897;DHT22;54698;48.428;9.964;2022-09-30T03:48:49;6.30;99.90
67897;DHT22;54698;48.428;9.964;2022-09-30T03:51:17;6.20;99.90
67897;DHT22;54698;48.428;9.964;2022-09-30T03:53:44;6.10;99.90
67897;DHT22;54698;48.428;9.964;2022-09-30T03:56:10;6.00;99.90
67897;DHT22;54698;48.428;9.964;2022-09-30T03:58:40;6.00;99.90
67897;DHT22;54698;48.428;9.964;2022-09-30T04:01:07;6.00;99.90
67897;DHT22;54698;48.428;9.964;2022-09-30T04:03:38;5.90;99.90
67897;DHT22;54698;48.428;9.964;2022-09-30T04:06:04;5.80;99.90
67897;DHT22;54698;48.428;9.964;2022-09-30T04:08:34;5.80;99.90
67897;DHT22;54698;48.428;9.964;2022-09-30T04:11:00;5.70;99.90
67897;DHT22;54698;48.428;9.964;2022-09-30T04:13:26;5.70;99.90
67897;DHT22;54698;48.428;9.964;2022-09-30T04:15:54;5.60;99.90
67897;DHT22;54698;48.428;9.964;2022-09-30T04:18:20;5.60;99.90
67897;DHT22;54698;48.428;9.964;2022-09-30T04:20:46;5.60;99.90
67897;DHT22;54698;48.428;9.964;2022-09-30T04:23:12;5.70;99.90
67897;DHT22;54698;48.428;9.964;2022-09-30T04:25:39;5.90;99.90
67897;DHT22;54698;48.428;9.964;2022-09-30T04:28:05;6.00;99.90
67897;DHT22;54698;48.428;9.964;2022-09-30T04:30:30;6.10;99.90
67897;DHT22;54698;48.428;9.964;2022-09-30T04:32:56;6.30;99.90
67897;DHT22;54698;48.428;9.964;2022-09-30T04:35:22;6.20;99.90
67897;DHT22;54698;48.428;9.964;2022-09-30T04:37:48;6.10;99.90
67897;DHT22;54698;48.428;9.964;2022-09-30T04:40:15;6.00;99.90
67897;DHT22;54698;48.428;9.964;2022-09-30T04:42:42;6.10;99.90
67897;DHT22;54698;48.428;9.964;2022-09-30T04:45:10;6.20;99.90
67897;DHT22;54698;48.428;9.964;2022-09-30T04:47:36;6.40;99.90
67897;DHT22;54698;48.428;9.964;2022-09-30T04:50:03;6.40;99.90
67897;DHT22;54698;48.428;9.964;2022-09-30T04:52:29;6.00;99.90
67897;DHT22;54698;48.428;9.964;2022-09-30T04:54:55;5.80;99.90
67897;DHT22;54698;48.428;9.964;2022-09-30T04:57:21;5.90;99.90
67897;DHT22;54698;48.428;9.964;2022-09-30T04:59:48;5.80;99.90
67897;DHT22;54698;48.428;9.964;2022-09-30T05:02:14;5.70;99.90
67897;DHT22;54698;48.428;9.964;2022-09-30T05:04:40;5.80;99.90
67897;DHT22;54698;48.428;9.964;2022-09-30T05:07:05;5.90;99.90
67897;DHT22;54698;48.428;9.964;2022-09-30T05:09:31;5.90;99.90
67897;DHT22;54698;48.428;9.964;2022-09-30T05:11:57;5.90;99.90
67897;DHT22;54698;48.428;9.964;2022-09-30T05:14:23;6.00;99.90
67897;DHT22;54698;48.428;9.964;2022-09-30T05:16:50;6.00;99.90
67897;DHT22;54698;48.428;9.964;2022-09-30T05:19:16;5.90;99.90
67897;DHT22;54698;48.428;9.964;2022-09-30T05:21:41;5.70;99.90
67897;DHT22;54698;48.428;9.964;2022-09-30T05:24:07;5.70;99.90
67897;DHT22;54698;48.428;9.964;2022-09-30T05:26:33;5.70;99.90
67897;DHT22;54698;48.428;9.964;2022-09-30T05:28:59;5.70;99.90
67897;DHT22;54698;48.428;9.964;2022-09-30T05:31:24;5.70;99.90
67897;DHT22;54698;48.428;9.964;2022-09-30T05:33:52;5.70;99.90
67897;DHT22;54698;48.428;9.964;2022-09-30T05:36:17;5.70;99.90
67897;DHT22;54698;48.428;9.964;2022-09-30T05:38:43;5.90;99.90
67897;DHT22;54698;48.428;9.964;2022-09-30T05:41:10;6.00;99.90
67897;DHT22;54698;48.428;9.964;2022-09-30T05:43:37;6.10;99.90
67897;DHT22;54698;48.428;9.964;2022-09-30T05:46:04;6.20;99.90
67897;DHT22;54698;48.428;9.964;2022-09-30T05:48:30;6.20;99.90
67897;DHT22;54698;48.428;9.964;2022-09-30T05:50:57;6.30;99.90
67897;DHT22;54698;48.428;9.964;2022-09-30T05:53:24;6.30;99.90
67897;DHT22;54698;48.428;9.964;2022-09-30T05:55:50;6.30;99.90
67897;DHT22;54698;48.428;9.964;2022-09-30T05:58:16;6.20;99.90
67897;DHT22;54698;48.428;9.964;2022-09-30T06:00:44;6.30;99.90
67897;DHT22;54698;48.428;9.964;2022-09-30T06:03:11;6.40;99.90
67897;DHT22;54698;48.428;9.964;2022-09-30T06:05:37;6.30;99.90
67897;DHT22;54698;48.428;9.964;2022-09-30T06:08:04;6.20;99.90
67897;DHT22;54698;48.428;9.964;2022-09-30T06:10:32;6.20;99.90
67897;DHT22;54698;48.428;9.964;2022-09-30T06:12:57;6.10;99.90
67897;DHT22;54698;48.428;9.964;2022-09-30T06:15:23;6.10;99.90
67897;DHT22;54698;48.428;9.964;2022-09-30T06:17:51;6.10;99.90
67897;DHT22;54698;48.428;9.964;2022-09-30T06:20:17;6.20;99.90
67897;DHT22;54698;48.428;9.964;2022-09-30T06:22:43;6.40;99.90
67897;DHT22;54698;48.428;9.964;2022-09-30T06:25:11;6.50;99.90
67897;DHT22;54698;48.428;9.964;2022-09-30T06:27:37;6.60;99.90
67897;DHT22;54698;48.428;9.964;2022-09-30T06:30:03;6.60;99.90
67897;DHT22;54698;48.428;9.964;2022-09-30T06:32:30;6.70;99.90
67897;DHT22;54698;48.428;9.964;2022-09-30T06:34:56;6.80;99.90
67897;DHT22;54698;48.428;9.964;2022-09-30T06:37:22;7.00;99.90
67897;DHT22;54698;48.428;9.964;2022-09-30T06:39:48;7.10;99.90
67897;DHT22;54698;48.428;9.964;2022-09-30T06:42:15;7.10;99.90
67897;DHT22;54698;48.428;9.964;2022-09-30T06:44:41;7.00;99.90
67897;DHT22;54698;48.428;9.964;2022-09-30T06:47:07;6.90;99.90
67897;DHT22;54698;48.428;9.964;2022-09-30T06:49:33;6.80;99.90
67897;DHT22;54698;48.428;9.964;2022-09-30T06:51:59;6.80;99.90
67897;DHT22;54698;48.428;9.964;2022-09-30T06:54:25;6.90;99.90
67897;DHT22;54698;48.428;9.964;2022-09-30T06:56:51;6.80;99.90
67897;DHT22;54698;48.428;9.964;2022-09-30T06:59:18;6.90;99.90
67897;DHT22;54698;48.428;9.964;2022-09-30T07:01:44;7.00;99.90
67897;DHT22;54698;48.428;9.964;2022-09-30T07:04:10;7.10;99.90
67897;DHT22;54698;48.428;9.964;2022-09-30T07:06:36;7.10;99.90
67897;DHT22;54698;48.428;9.964;2022-09-30T07:09:02;6.90;99.90
67897;DHT22;54698;48.428;9.964;2022-09-30T07:11:28;7.00;99.90
67897;DHT22;54698;48.428;9.964;2022-09-30T07:13:54;6.90;99.90
67897;DHT22;54698;48.428;9.964;2022-09-30T07:16:21;7.10;99.90
67897;DHT22;54698;48.428;9.964;2022-09-30T07:18:47;7.30;99.90
67897;DHT22;54698;48.428;9.964;2022-09-30T07:21:14;7.60;99.90
67897;DHT22;54698;48.428;9.964;2022-09-30T07:23:40;7.60;99.90
67897;DHT22;54698;48.428;9.964;2022-09-30T07:26:06;7.60;99.90
67897;DHT22;54698;48.428;9.964;2022-09-30T07:28:34;7.60;99.90
67897;DHT22;54698;48.428;9.964;2022-09-30T07:31:05;7.50;99.90
67897;DHT22;54698;48.428;9.964;2022-09-30T07:33:34;7.50;99.90
67897;DHT22;54698;48.428;9.964;2022-09-30T07:36:00;7.60;99.90
67897;DHT22;54698;48.428;9.964;2022-09-30T07:38:28;7.90;99.90
67897;DHT22;54698;48.428;9.964;2022-09-30T07:40:57;8.20;99.90
67897;DHT22;54698;48.428;9.964;2022-09-30T07:43:24;8.20;99.90
67897;DHT22;54698;48.428;9.964;2022-09-30T07:45:50;8.20;99.90
67897;DHT22;54698;48.428;9.964;2022-09-30T07:48:16;8.20;99.90
67897;DHT22;54698;48.428;9.964;2022-09-30T07:50:43;8.40;99.90
67897;DHT22;54698;48.428;9.964;2022-09-30T07:53:09;8.50;99.90
67897;DHT22;54698;48.428;9.964;2022-09-30T07:55:35;8.60;99.90
67897;DHT22;54698;48.428;9.964;2022-09-30T07:58:01;8.70;99.90
67897;DHT22;54698;48.428;9.964;2022-09-30T08:00:27;8.70;99.90
67897;DHT22;54698;48.428;9.964;2022-09-30T08:02:52;8.80;99.90
67897;DHT22;54698;48.428;9.964;2022-09-30T08:05:18;8.80;99.90
67897;DHT22;54698;48.428;9.964;2022-09-30T08:07:45;8.80;99.90
67897;DHT22;54698;48.428;9.964;2022-09-30T08:10:11;8.90;99.90
67897;DHT22;54698;48.428;9.964;2022-09-30T08:12:37;8.90;99.90
67897;DHT22;54698;48.428;9.964;2022-09-30T08:15:04;9.00;99.90
67897;DHT22;54698;48.428;9.964;2022-09-30T08:17:30;9.00;99.90
67897;DHT22;54698;48.428;9.964;2022-09-30T08:19:56;8.80;99.90
67897;DHT22;54698;48.428;9.964;2022-09-30T08:22:22;8.70;99.90
67897;DHT22;54698;48.428;9.964;2022-09-30T08:24:49;8.60;99.90
67897;DHT22;54698;48.428;9.964;2022-09-30T08:27:14;8.50;99.90
67897;DHT22;54698;48.428;9.964;2022-09-30T08:29:40;8.50;99.90
67897;DHT22;54698;48.428;9.964;2022-09-30T08:32:06;8.70;99.90
67897;DHT22;54698;48.428;9.964;2022-09-30T08:34:32;8.80;99.90
67897;DHT22;54698;48.428;9.964;2022-09-30T08:36:58;9.00;99.90
67897;DHT22;54698;48.428;9.964;2022-09-30T08:39:23;8.90;99.90
67897;DHT22;54698;48.428;9.964;2022-09-30T08:42:07;8.90;99.90
67897;DHT22;54698;48.428;9.964;2022-09-30T08:44:42;9.00;99.90
67897;DHT22;54698;48.428;9.964;2022-09-30T08:47:33;9.10;99.90
67897;DHT22;54698;48.428;9.964;2022-09-30T08:50:13;9.10;99.90
67897;DHT22;54698;48.428;9.964;2022-09-30T08:52:43;9.10;99.90
67897;DHT22;54698;48.428;9.964;2022-09-30T08:55:18;9.00;99.90
67897;DHT22;54698;48.428;9.964;2022-09-30T08:57:47;9.00;99.90
67897;DHT22;54698;48.428;9.964;2022-09-30T09:00:15;9.10;99.90
67897;DHT22;54698;48.428;9.964;2022-09-30T09:02:48;9.30;99.90
67897;DHT22;54698;48.428;9.964;2022-09-30T09:05:24;9.50;99.90
67897;DHT22;54698;48.428;9.964;2022-09-30T09:08:00;9.60;99.90
67897;DHT22;54698;48.428;9.964;2022-09-30T09:10:35;9.80;99.90
67897;DHT22;54698;48.428;9.964;2022-09-30T09:13:15;10.00;99.90
67897;DHT22;54698;48.428;9.964;2022-09-30T09:15:58;10.10;99.90
67897;DHT22;54698;48.428;9.964;2022-09-30T09:18:44;10.20;99.90
67897;DHT22;54698;48.428;9.964;2022-09-30T09:21:22;10.10;99.90
67897;DHT22;54698;48.428;9.964;2022-09-30T09:23:57;10.00;99.90
67897;DHT22;54698;48.428;9.964;2022-09-30T09:26:26;10.00;99.90
67897;DHT22;54698;48.428;9.964;2022-09-30T09:29:14;10.10;99.90
67897;DHT22;54698;48.428;9.964;2022-09-30T09:31:45;10.30;99.90
67897;DHT22;54698;48.428;9.964;2022-09-30T09:34:11;10.40;99.90
67897;DHT22;54698;48.428;9.964;2022-09-30T09:36:47;10.60;99.90
67897;DHT22;54698;48.428;9.964;2022-09-30T09:39:34;10.70;99.90
67897;DHT22;54698;48.428;9.964;2022-09-30T09:42:23;10.80;99.90
67897;DHT22;54698;48.428;9.964;2022-09-30T09:44:59;10.60;99.90
67897;DHT22;54698;48.428;9.964;2022-09-30T09:47:27;10.60;99.90
67897;DHT22;54698;48.428;9.964;2022-09-30T09:49:55;10.60;99.90
67897;DHT22;54698;48.428;9.964;2022-09-30T09:52:46;10.60;99.90
67897;DHT22;54698;48.428;9.964;2022-09-30T09:55:21;10.70;99.90
67897;DHT22;54698;48.428;9.964;2022-09-30T09:57:47;10.60;99.90
67897;DHT22;54698;48.428;9.964;2022-09-30T10:00:23;10.60;99.90
67897;DHT22;54698;48.428;9.964;2022-09-30T10:03:04;10.60;99.90
67897;DHT22;54698;48.428;9.964;2022-09-30T10:05:33;10.60;99.90
67897;DHT22;54698;48.428;9.964;2022-09-30T10:08:12;10.70;99.90
67897;DHT22;54698;48.428;9.964;2022-09-30T10:10:48;10.70;99.90
67897;DHT22;54698;48.428;9.964;2022-09-30T10:13:16;10.80;99.90
67897;DHT22;54698;48.428;9.964;2022-09-30T10:15:45;10.80;99.90
67897;DHT22;54698;48.428;9.964;2022-09-30T10:18:17;11.00;99.90
67897;DHT22;54698;48.428;9.964;2022-09-30T10:20:51;11.10;99.90
67897;DHT22;54698;48.428;9.964;2022-09-30T10:23:20;11.40;99.90
67897;DHT22;54698;48.428;9.964;2022-09-30T10:25:55;11.80;99.90
67897;DHT22;54698;48.428;9.964;2022-09-30T10:28:25;12.00;99.90
67897;DHT22;54698;48.428;9.964;2022-09-30T10:30:54;12.10;99.90
67897;DHT22;54698;48.428;9.964;2022-09-30T10:33:26;11.90;99.90
67897;DHT22;54698;48.428;9.964;2022-09-30T10:35:59;11.80;99.90
67897;DHT22;54698;48.428;9.964;2022-09-30T10:38:27;11.70;99.90
67897;DHT22;54698;48.428;9.964;2022-09-30T10:40:55;11.60;99.90
67897;DHT22;54698;48.428;9.964;2022-09-30T10:43:23;11.40;99.90
67897;DHT22;54698;48.428;9.964;2022-09-30T10:45:51;11.40;99.90
67897;DHT22;54698;48.428;9.964;2022-09-30T10:48:21;11.30;99.90
67897;DHT22;54698;48.428;9.964;2022-09-30T10:50:49;11.40;99.90
67897;DHT22;54698;48.428;9.964;2022-09-30T10:53:20;11.20;99.90
67897;DHT22;54698;48.428;9.964;2022-09-30T10:55:47;11.10;99.90
67897;DHT22;54698;48.428;9.964;2022-09-30T10:58:28;11.10;99.90
67897;DHT22;54698;48.428;9.964;2022-09-30T11:01:05;11.10;99.90
67897;DHT22;54698;48.428;9.964;2022-09-30T11:03:44;11.20;99.90
67897;DHT22;54698;48.428;9.964;2022-09-30T11:06:17;11.20;99.90
67897;DHT22;54698;48.428;9.964;2022-09-30T11:08:48;11.20;99.90
67897;DHT22;54698;48.428;9.964;2022-09-30T11:11:20;11.30;99.90
67897;DHT22;54698;48.428;9.964;2022-09-30T11:13:55;11.30;99.90
67897;DHT22;54698;48.428;9.964;2022-09-30T11:16:28;11.30;99.90
67897;DHT22;54698;48.428;9.964;2022-09-30T11:19:02;11.30;99.90
67897;DHT22;54698;48.428;9.964;2022-09-30T11:21:37;11.40;99.90
67897;DHT22;54698;48.428;9.964;2022-09-30T11:24:18;11.40;99.90
67897;DHT22;54698;48.428;9.964;2022-09-30T11:26:51;11.40;99.90
67897;DHT22;54698;48.428;9.964;2022-09-30T11:29:35;11.40;99.90
67897;DHT22;54698;48.428;9.964;2022-09-30T11:32:17;11.50;99.90
67897;DHT22;54698;48.428;9.964;2022-09-30T11:34:58;11.50;99.90
67897;DHT22;54698;48.428;9.964;2022-09-30T11:37:39;11.40;99.90
67897;DHT22;54698;48.428;9.964;2022-09-30T11:40:34;11.40;99.90
67897;DHT22;54698;48.428;9.964;2022-09-30T11:43:10;11.40;99.90
67897;DHT22;54698;48.428;9.964;2022-09-30T11:46:01;11.40;99.90
67897;DHT22;54698;48.428;9.964;2022-09-30T11:48:51;11.10;99.90
67897;DHT22;54698;48.428;9.964;2022-09-30T11:51:49;11.20;99.90
67897;DHT22;54698;48.428;9.964;2022-09-30T11:54:29;11.30;99.90
67897;DHT22;54698;48.428;9.964;2022-09-30T11:57:12;11.50;99.90
67897;DHT22;54698;48.428;9.964;2022-09-30T11:59:44;11.80;99.90
67897;DHT22;54698;48.428;9.964;2022-09-30T12:02:19;11.90;99.90
67897;DHT22;54698;48.428;9.964;2022-09-30T12:04:56;12.10;99.90
67897;DHT22;54698;48.428;9.964;2022-09-30T12:07:32;12.30;99.90
67897;DHT22;54698;48.428;9.964;2022-09-30T12:10:05;12.50;99.90
67897;DHT22;54698;48.428;9.964;2022-09-30T12:12:39;12.50;99.90
67897;DHT22;54698;48.428;9.964;2022-09-30T12:15:06;12.30;99.90
67897;DHT22;54698;48.428;9.964;2022-09-30T12:17:42;12.20;99.90
67897;DHT22;54698;48.428;9.964;2022-09-30T12:20:15;12.20;99.90
67897;DHT22;54698;48.428;9.964;2022-09-30T12:22:44;12.10;99.90
67897;DHT22;54698;48.428;9.964;2022-09-30T12:25:14;12.10;99.90
67897;DHT22;54698;48.428;9.964;2022-09-30T12:27:45;12.20;99.90
67897;DHT22;54698;48.428;9.964;2022-09-30T12:30:15;12.10;99.90
67897;DHT22;54698;48.428;9.964;2022-09-30T12:33:08;12.20;99.90
67897;DHT22;54698;48.428;9.964;2022-09-30T12:35:58;12.20;99.90
67897;DHT22;54698;48.428;9.964;2022-09-30T12:38:53;12.30;99.90
67897;DHT22;54698;48.428;9.964;2022-09-30T12:41:48;12.40;99.90
67897;DHT22;54698;48.428;9.964;2022-09-30T12:44:35;12.60;99.90
67897;DHT22;54698;48.428;9.964;2022-09-30T12:47:33;12.90;99.90
67897;DHT22;54698;48.428;9.964;2022-09-30T12:50:04;12.80;99.90
67897;DHT22;54698;48.428;9.964;2022-09-30T12:52:34;12.70;99.90
67897;DHT22;54698;48.428;9.964;2022-09-30T12:55:05;12.70;99.90
67897;DHT22;54698;48.428;9.964;2022-09-30T12:57:38;12.60;99.90
67897;DHT22;54698;48.428;9.964;2022-09-30T13:00:12;12.70;99.90
67897;DHT22;54698;48.428;9.964;2022-09-30T13:02:42;12.80;99.90
67897;DHT22;54698;48.428;9.964;2022-09-30T13:05:46;12.90;99.90
67897;DHT22;54698;48.428;9.964;2022-09-30T13:08:31;13.10;99.90
67897;DHT22;54698;48.428;9.964;2022-09-30T13:11:05;12.90;99.90
67897;DHT22;54698;48.428;9.964;2022-09-30T13:13:31;12.60;99.90
67897;DHT22;54698;48.428;9.964;2022-09-30T13:15:58;12.50;99.90
67897;DHT22;54698;48.428;9.964;2022-09-30T13:18:58;12.60;99.90
67897;DHT22;54698;48.428;9.964;2022-09-30T13:21:25;12.80;99.90
67897;DHT22;54698;48.428;9.964;2022-09-30T13:23:53;12.80;99.90
67897;DHT22;54698;48.428;9.964;2022-09-30T13:26:40;12.80;99.90
67897;DHT22;54698;48.428;9.964;2022-09-30T13:29:30;13.10;99.90
67897;DHT22;54698;48.428;9.964;2022-09-30T13:32:02;13.50;99.90
67897;DHT22;54698;48.428;9.964;2022-09-30T13:34:46;13.90;99.90
67897;DHT22;54698;48.428;9.964;2022-09-30T13:37:37;14.80;99.90
67897;DHT22;54698;48.428;9.964;2022-09-30T13:40:15;15.90;99.90
67897;DHT22;54698;48.428;9.964;2022-09-30T13:42:50;16.50;99.90
67897;DHT22;54698;48.428;9.964;2022-09-30T13:45:24;16.60;99.90
67897;DHT22;54698;48.428;9.964;2022-09-30T13:48:01;16.40;99.90
67897;DHT22;54698;48.428;9.964;2022-09-30T13:50:35;16.10;99.90
67897;DHT22;54698;48.428;9.964;2022-09-30T13:53:06;15.60;99.90
67897;DHT22;54698;48.428;9.964;2022-09-30T13:55:41;15.70;99.90
67897;DHT22;54698;48.428;9.964;2022-09-30T13:58:21;15.70;99.90
67897;DHT22;54698;48.428;9.964;2022-09-30T14:01:05;15.90;99.90
67897;DHT22;54698;48.428;9.964;2022-09-30T14:04:02;16.90;99.90
67897;DHT22;54698;48.428;9.964;2022-09-30T14:06:45;19.60;98.60
67897;DHT22;54698;48.428;9.964;2022-09-30T14:09:27;21.60;91.80
67897;DHT22;54698;48.428;9.964;2022-09-30T14:12:11;22.10;85.20
67897;DHT22;54698;48.428;9.964;2022-09-30T14:15:14;21.50;82.40
67897;DHT22;54698;48.428;9.964;2022-09-30T14:18:13;20.40;83.40
67897;DHT22;54698;48.428;9.964;2022-09-30T14:21:00;21.10;85.80
67897;DHT22;54698;48.428;9.964;2022-09-30T14:23:31;21.40;81.30
67897;DHT22;54698;48.428;9.964;2022-09-30T14:26:02;20.90;79.20
67897;DHT22;54698;48.428;9.964;2022-09-30T14:28:42;20.10;82.50
67897;DHT22;54698;48.428;9.964;2022-09-30T14:31:13;19.00;83.70
67897;DHT22;54698;48.428;9.964;2022-09-30T14:33:40;17.70;90.20
67897;DHT22;54698;48.428;9.964;2022-09-30T14:36:12;17.20;93.20
67897;DHT22;54698;48.428;9.964;2022-09-30T14:38:43;17.30;92.00
67897;DHT22;54698;48.428;9.964;2022-09-30T14:41:17;17.30;92.60
67897;DHT22;54698;48.428;9.964;2022-09-30T14:43:45;17.20;93.30
67897;DHT22;54698;48.428;9.964;2022-09-30T14:46:18;16.80;93.50
67897;DHT22;54698;48.428;9.964;2022-09-30T14:48:50;16.60;94.20
67897;DHT22;54698;48.428;9.964;2022-09-30T14:51:17;16.70;96.20
67897;DHT22;54698;48.428;9.964;2022-09-30T14:53:52;16.90;95.00
67897;DHT22;54698;48.428;9.964;2022-09-30T14:56:21;17.50;94.60
67897;DHT22;54698;48.428;9.964;2022-09-30T14:58:52;18.10;93.80
67897;DHT22;54698;48.428;9.964;2022-09-30T15:01:19;18.60;91.10
67897;DHT22;54698;48.428;9.964;2022-09-30T15:03:47;18.70;90.80
67897;DHT22;54698;48.428;9.964;2022-09-30T15:06:18;18.80;90.50
67897;DHT22;54698;48.428;9.964;2022-09-30T15:08:45;19.40;90.00
67897;DHT22;54698;48.428;9.964;2022-09-30T15:11:17;20.40;84.10
67897;DHT22;54698;48.428;9.964;2022-09-30T15:13:44;21.50;78.80
67897;DHT22;54698;48.428;9.964;2022-09-30T15:16:23;22.90;75.00
67897;DHT22;54698;48.428;9.964;2022-09-30T15:18:49;23.40;68.40
67897;DHT22;54698;48.428;9.964;2022-09-30T15:21:15;22.90;69.10
67897;DHT22;54698;48.428;9.964;2022-09-30T15:23:44;22.50;70.70
67897;DHT22;54698;48.428;9.964;2022-09-30T15:26:12;21.90;71.30
67897;DHT22;54698;48.428;9.964;2022-09-30T15:28:39;21.10;72.20
67897;DHT22;54698;48.428;9.964;2022-09-30T15:31:05;20.20;75.50
67897;DHT22;54698;48.428;9.964;2022-09-30T15:33:34;19.30;78.30
67897;DHT22;54698;48.428;9.964;2022-09-30T15:36:01;18.50;82.60
67897;DHT22;54698;48.428;9.964;2022-09-30T15:38:33;17.70;85.60
67897;DHT22;54698;48.428;9.964;2022-09-30T15:41:03;17.10;90.40
67897;DHT22;54698;48.428;9.964;2022-09-30T15:43:39;16.40;90.80
67897;DHT22;54698;48.428;9.964;2022-09-30T15:46:24;15.80;92.80
67897;DHT22;54698;48.428;9.964;2022-09-30T15:48:57;15.20;95.30
67897;DHT22;54698;48.428;9.964;2022-09-30T15:51:36;14.90;96.80
67897;DHT22;54698;48.428;9.964;2022-09-30T15:54:26;14.60;98.30
67897;DHT22;54698;48.428;9.964;2022-09-30T15:56:53;14.30;99.80
67897;DHT22;54698;48.428;9.964;2022-09-30T15:59:19;14.00;99.90
67897;DHT22;54698;48.428;9.964;2022-09-30T16:01:46;13.60;99.90
67897;DHT22;54698;48.428;9.964;2022-09-30T16:04:23;13.40;99.90
67897;DHT22;54698;48.428;9.964;2022-09-30T16:06:52;13.30;99.90
67897;DHT22;54698;48.428;9.964;2022-09-30T16:09:26;13.10;99.90
67897;DHT22;54698;48.428;9.964;2022-09-30T16:12:02;12.90;99.90
67897;DHT22;54698;48.428;9.964;2022-09-30T16:14:32;12.70;99.90
67897;DHT22;54698;48.428;9.964;2022-09-30T16:17:01;12.50;99.90